GEOFB FZNA-HRYR
Flight info
| Callsign | GEOFB |
|---|---|
| Flight time | 0h 13m |
| Altitude | 21000 |
| Route | RANAG2B RANAG RANAG1B |
| Aircraft | C750/M-SBDE3FGHRWXY/S |
Departure
| Time | 2026-04-27 14:04 |
|---|---|
| Airport | Goma International Airport (FZNA) |
Arrival
| Time | 2026-04-27 14:17 |
|---|---|
| Airport | Kigali International Airport (HRYR) |
| Time | Latitude | Longitude | Altitude | Speed | Heading |
|---|---|---|---|---|---|
| 2026-04-27 14:03 | -1.67094 | 29.23837 | 5021 ft | 0 kts | 354° |
| 2026-04-27 14:03 | -1.67069 | 29.23835 | 5022 ft | 25 kts | 357° |
| 2026-04-27 14:03 | -1.66518 | 29.23782 | 5038 ft | 131 kts | 355° |
| 2026-04-27 14:03 | -1.65486 | 29.23699 | 5376 ft | 151 kts | 357° |
| 2026-04-27 14:04 | -1.64481 | 29.23639 | 6025 ft | 144 kts | 1° |
| 2026-04-27 14:04 | -1.63471 | 29.23996 | 6165 ft | 167 kts | 32° |
| 2026-04-27 14:04 | -1.62607 | 29.24876 | 6245 ft | 192 kts | 60° |
| 2026-04-27 14:04 | -1.62262 | 29.26156 | 6979 ft | 197 kts | 87° |
| 2026-04-27 14:05 | -1.62639 | 29.27541 | 7402 ft | 222 kts | 118° |
| 2026-04-27 14:05 | -1.63510 | 29.28912 | 7884 ft | 245 kts | 123° |
| 2026-04-27 14:05 | -1.64392 | 29.30431 | 8386 ft | 267 kts | 116° |
| 2026-04-27 14:05 | -1.65157 | 29.32210 | 9040 ft | 286 kts | 112° |
| 2026-04-27 14:06 | -1.65966 | 29.34026 | 10194 ft | 288 kts | 115° |
| 2026-04-27 14:06 | -1.66886 | 29.35887 | 10750 ft | 311 kts | 116° |
| 2026-04-27 14:06 | -1.67897 | 29.37917 | 11028 ft | 340 kts | 116° |
| 2026-04-27 14:06 | -1.68954 | 29.40121 | 11369 ft | 360 kts | 115° |
| 2026-04-27 14:07 | -1.70025 | 29.42385 | 12250 ft | 362 kts | 115° |
| 2026-04-27 14:07 | -1.71125 | 29.44664 | 13017 ft | 366 kts | 116° |
| 2026-04-27 14:07 | -1.72231 | 29.46938 | 13820 ft | 370 kts | 115° |
| 2026-04-27 14:07 | -1.73355 | 29.49269 | 14599 ft | 375 kts | 115° |
| 2026-04-27 14:08 | -1.74487 | 29.51630 | 15351 ft | 379 kts | 115° |
| 2026-04-27 14:08 | -1.75637 | 29.54020 | 16114 ft | 383 kts | 116° |
| 2026-04-27 14:08 | -1.76800 | 29.56430 | 16863 ft | 387 kts | 116° |
| 2026-04-27 14:08 | -1.77957 | 29.58831 | 17381 ft | 376 kts | 116° |
| 2026-04-27 14:09 | -1.79064 | 29.61133 | 16443 ft | 372 kts | 116° |
| 2026-04-27 14:09 | -1.80208 | 29.63508 | 15791 ft | 379 kts | 116° |
| 2026-04-27 14:09 | -1.81331 | 29.65839 | 15169 ft | 377 kts | 116° |
| 2026-04-27 14:09 | -1.82442 | 29.68148 | 14540 ft | 358 kts | 116° |
| 2026-04-27 14:10 | -1.83493 | 29.70329 | 13907 ft | 340 kts | 115° |
| 2026-04-27 14:10 | -1.84498 | 29.72417 | 13270 ft | 327 kts | 115° |
| 2026-04-27 14:10 | -1.85468 | 29.74428 | 12636 ft | 316 kts | 115° |
| 2026-04-27 14:10 | -1.86407 | 29.76378 | 12001 ft | 307 kts | 115° |
| 2026-04-27 14:11 | -1.87321 | 29.78278 | 11370 ft | 300 kts | 115° |
| 2026-04-27 14:11 | -1.88215 | 29.80139 | 10827 ft | 291 kts | 115° |
| 2026-04-27 14:11 | -1.89072 | 29.81915 | 10477 ft | 278 kts | 115° |
| 2026-04-27 14:11 | -1.89887 | 29.83607 | 10119 ft | 271 kts | 115° |
| 2026-04-27 14:12 | -1.90698 | 29.85295 | 9764 ft | 267 kts | 115° |
| 2026-04-27 14:12 | -1.91501 | 29.86965 | 9413 ft | 267 kts | 115° |
| 2026-04-27 14:12 | -1.92297 | 29.88630 | 9051 ft | 263 kts | 114° |
| 2026-04-27 14:12 | -1.92765 | 29.90384 | 8737 ft | 260 kts | 99° |
| 2026-04-27 14:13 | -1.93046 | 29.92170 | 8491 ft | 259 kts | 98° |
| 2026-04-27 14:13 | -1.93348 | 29.93956 | 8203 ft | 262 kts | 99° |
| 2026-04-27 14:13 | -1.93667 | 29.95733 | 7927 ft | 253 kts | 99° |
| 2026-04-27 14:13 | -1.93964 | 29.97391 | 7646 ft | 233 kts | 100° |
| 2026-04-27 14:14 | -1.94216 | 29.98829 | 7377 ft | 194 kts | 99° |
| 2026-04-27 14:14 | -1.94442 | 30.00132 | 7214 ft | 189 kts | 99° |
| 2026-04-27 14:14 | -1.94666 | 30.01418 | 7056 ft | 189 kts | 99° |
| 2026-04-27 14:14 | -1.94891 | 30.02695 | 6821 ft | 188 kts | 99° |
| 2026-04-27 14:15 | -1.95119 | 30.03980 | 6588 ft | 188 kts | 99° |
| 2026-04-27 14:15 | -1.95341 | 30.05255 | 6330 ft | 186 kts | 100° |
| 2026-04-27 14:15 | -1.95559 | 30.06493 | 6085 ft | 167 kts | 99° |
| 2026-04-27 14:15 | -1.95743 | 30.07545 | 5863 ft | 142 kts | 100° |
| 2026-04-27 14:16 | -1.95907 | 30.08475 | 5678 ft | 132 kts | 100° |
| 2026-04-27 14:16 | -1.96064 | 30.09369 | 5515 ft | 130 kts | 100° |
| 2026-04-27 14:16 | -1.96222 | 30.10267 | 5348 ft | 131 kts | 100° |
| 2026-04-27 14:16 | -1.96379 | 30.11166 | 5185 ft | 132 kts | 100° |
| 2026-04-27 14:17 | -1.96535 | 30.12057 | 5005 ft | 131 kts | 100° |
| 2026-04-27 14:17 | -1.96690 | 30.12938 | 4900 ft | 120 kts | 100° |
| 2026-04-27 14:17 | -1.96814 | 30.13642 | 4900 ft | 65 kts | 100° |
| 2026-04-27 14:17 | -1.96835 | 30.13757 | 4893 ft | 1 kts | 99° |
| 2026-04-27 14:18 | -1.96835 | 30.13760 | 4895 ft | 0 kts | 99° |